Time;durP1;ratioP1;P1;durP2;ratioP2;P2;SDS_P1;SDS_P2;PMS_P1;PMS_P2;Temp;Humidity;BMP_temperature;BMP_pressure;BME280_temperature;BME280_humidity;BME280_pressure;Samples;Min_cycle;Max_cycle;Signal;HPM_P1;HPM_P2
2022/05/28 00:00:59;;;;;;;11.85;2.67;;;12.10;99.90;;;;;;5090953;28;20068;-66
2022/05/28 00:03:27;;;;;;;12.50;2.55;;;12.10;99.90;;;;;;5089008;28;20093;-66
2022/05/28 00:05:53;;;;;;;11.90;3.00;;;12.10;99.90;;;;;;5113122;28;20042;-66
2022/05/28 00:08:19;;;;;;;14.68;2.42;;;12.10;99.90;;;;;;5092266;28;20127;-66
2022/05/28 00:10:46;;;;;;;12.70;2.42;;;12.10;99.90;;;;;;5092216;28;20052;-66
2022/05/28 00:13:12;;;;;;;11.63;2.30;;;12.10;99.90;;;;;;5096357;28;20119;-66
2022/05/28 00:15:38;;;;;;;7.70;1.85;;;12.00;99.90;;;;;;5091352;28;20119;-65
2022/05/28 00:18:03;;;;;;;12.85;2.30;;;12.10;99.90;;;;;;5111510;28;20039;-66
2022/05/28 00:20:30;;;;;;;11.85;2.50;;;12.00;99.90;;;;;;5088447;28;20066;-66
2022/05/28 00:22:55;;;;;;;11.45;2.75;;;12.00;99.90;;;;;;5098733;28;20157;-66
2022/05/28 00:25:21;;;;;;;11.40;2.40;;;11.90;99.90;;;;;;5091581;28;20645;-65
2022/05/28 00:27:47;;;;;;;6.57;1.70;;;11.90;99.90;;;;;;5091340;28;20044;-66
2022/05/28 00:30:16;;;;;;;8.88;1.65;;;11.90;99.90;;;;;;5091197;28;20043;-66
2022/05/28 00:32:42;;;;;;;7.65;2.10;;;11.80;99.90;;;;;;5095280;28;20035;-66
2022/05/28 00:35:12;;;;;;;6.05;1.40;;;11.80;99.90;;;;;;5108337;28;20039;-66
2022/05/28 00:37:38;;;;;;;5.68;1.15;;;11.70;99.90;;;;;;5093885;28;20096;-66
2022/05/28 00:40:07;;;;;;;5.85;1.55;;;11.60;99.90;;;;;;5088887;28;20032;-65
2022/05/28 00:42:33;;;;;;;5.32;1.48;;;11.60;99.90;;;;;;5112142;28;20044;-66
2022/05/28 00:44:59;;;;;;;7.80;1.92;;;11.50;99.90;;;;;;5099253;28;20684;-66
2022/05/28 00:47:25;;;;;;;8.73;2.15;;;11.40;99.90;;;;;;5088903;28;20048;-66
2022/05/28 00:49:52;;;;;;;9.57;1.85;;;11.30;99.90;;;;;;5099958;28;20044;-66
2022/05/28 00:52:20;;;;;;;8.45;2.03;;;11.30;99.90;;;;;;5094785;28;20036;-66
2022/05/28 00:54:48;;;;;;;8.15;1.80;;;11.20;99.90;;;;;;5089078;28;20043;-66
2022/05/28 00:57:15;;;;;;;8.50;2.10;;;11.20;99.90;;;;;;5089981;28;20044;-66
2022/05/28 00:59:45;;;;;;;9.70;1.98;;;11.20;99.90;;;;;;5095611;28;20063;-66
2022/05/28 01:02:35;;;;;;;7.88;2.00;;;11.20;99.90;;;;;;5096496;28;20036;-66
2022/05/28 01:05:15;;;;;;;9.43;2.22;;;11.20;99.90;;;;;;5094997;28;20067;-66
2022/05/28 01:08:02;;;;;;;10.88;1.90;;;11.20;99.90;;;;;;5090865;28;20040;-65
2022/05/28 01:11:05;;;;;;;9.63;1.80;;;11.20;99.90;;;;;;5096624;28;20381;-66
2022/05/28 01:13:46;;;;;;;9.85;1.73;;;11.20;99.90;;;;;;5044347;28;20067;-66
2022/05/28 01:16:24;;;;;;;8.55;1.92;;;11.20;99.90;;;;;;5088758;28;20119;-65
2022/05/28 01:18:56;;;;;;;;;;;11.10;99.90;;;;;;5094925;28;20036;-65
2022/05/28 01:21:39;;;;;;;8.00;1.98;;;11.10;99.90;;;;;;5088809;28;19927;-66
2022/05/28 01:24:19;;;;;;;9.05;1.90;;;11.10;99.90;;;;;;5089308;28;20036;-66
2022/05/28 01:26:53;;;;;;;7.63;1.88;;;11.10;99.90;;;;;;5085984;28;20714;-66
2022/05/28 01:29:21;;;;;;;8.93;2.10;;;11.00;99.90;;;;;;5090879;28;20062;-66
2022/05/28 01:31:47;;;;;;;10.00;2.20;;;11.10;99.90;;;;;;5086800;28;20436;-66
2022/05/28 01:34:18;;;;;;;7.75;1.73;;;11.00;99.90;;;;;;5088828;28;20072;-65
2022/05/28 01:36:44;;;;;;;8.13;2.08;;;11.00;99.90;;;;;;5091710;28;20044;-66
2022/05/28 01:39:12;;;;;;;9.32;2.08;;;11.00;99.90;;;;;;5085928;28;20047;-66
2022/05/28 01:41:39;;;;;;;11.57;2.13;;;11.00;99.90;;;;;;5103739;27;20039;-66
2022/05/28 01:44:08;;;;;;;8.43;1.75;;;11.00;99.90;;;;;;5104296;28;20040;-66
2022/05/28 01:46:36;;;;;;;10.27;1.90;;;11.00;99.90;;;;;;5111338;28;20052;-66
2022/05/28 01:49:03;;;;;;;10.85;2.00;;;11.00;99.90;;;;;;5098449;28;20028;-66
2022/05/28 01:51:36;;;;;;;12.93;2.55;;;10.90;99.90;;;;;;5089345;28;20054;-66
2022/05/28 01:54:07;;;;;;;11.77;2.75;;;10.90;99.90;;;;;;5085335;28;20131;-66
2022/05/28 01:56:33;;;;;;;9.10;1.90;;;10.90;99.90;;;;;;5092668;28;20138;-67
2022/05/28 01:58:58;;;;;;;9.23;2.03;;;10.90;99.90;;;;;;5092789;28;20066;-66
2022/05/28 02:01:24;;;;;;;9.50;1.90;;;10.90;99.90;;;;;;5093522;28;20048;-66
2022/05/28 02:03:56;;;;;;;11.32;2.65;;;10.80;99.90;;;;;;5096987;28;20048;-66
2022/05/28 02:06:22;;;;;;;12.40;2.10;;;10.80;99.90;;;;;;5087515;28;20059;-66
2022/05/28 02:08:49;;;;;;;11.05;2.35;;;10.80;99.90;;;;;;5089757;28;20028;-65
2022/05/28 02:11:26;;;;;;;10.20;2.13;;;10.70;99.90;;;;;;5099457;28;20059;-65
2022/05/28 02:13:55;;;;;;;;;;;10.80;99.90;;;;;;5096664;28;20058;-66
2022/05/28 02:16:59;;;;;;;10.75;1.92;;;10.60;99.90;;;;;;5089205;28;20282;-66
2022/05/28 02:19:43;;;;;;;9.48;1.83;;;10.60;99.90;;;;;;5092472;28;20557;-66
2022/05/28 02:22:28;;;;;;;10.95;2.10;;;10.60;99.90;;;;;;5093835;28;20055;-65
2022/05/28 02:24:59;;;;;;;11.05;1.90;;;10.60;99.90;;;;;;5094510;28;20044;-66
2022/05/28 02:27:27;;;;;;;12.15;2.00;;;10.60;99.90;;;;;;5093878;28;20044;-66
2022/05/28 02:29:52;;;;;;;;;;;10.60;99.90;;;;;;5096378;28;20036;-65
2022/05/28 02:32:21;;;;;;;9.90;2.00;;;10.50;99.90;;;;;;5110476;28;19924;-65
2022/05/28 02:34:50;;;;;;;9.73;2.15;;;10.50;99.90;;;;;;5096117;28;20064;-65
2022/05/28 02:37:20;;;;;;;8.85;1.92;;;10.50;99.90;;;;;;5089126;28;20079;-65
2022/05/28 02:39:45;;;;;;;10.52;1.95;;;10.50;99.90;;;;;;5096060;28;20162;-65
2022/05/28 02:42:11;;;;;;;9.27;2.03;;;10.40;99.90;;;;;;5101618;28;20498;-66
2022/05/28 02:44:37;;;;;;;11.25;1.98;;;10.40;99.90;;;;;;5086632;28;20047;-66
2022/05/28 02:47:03;;;;;;;13.82;2.65;;;10.50;99.90;;;;;;5100078;28;20047;-66
2022/05/28 02:49:30;;;;;;;11.13;2.33;;;10.40;99.90;;;;;;5092294;28;20360;-66
2022/05/28 02:51:55;;;;;;;9.90;2.15;;;10.40;99.90;;;;;;5100480;28;20044;-65
2022/05/28 02:54:22;;;;;;;8.90;1.85;;;10.30;99.90;;;;;;5109347;28;20131;-65
2022/05/28 02:56:48;;;;;;;9.93;1.90;;;10.30;99.90;;;;;;5108582;28;20544;-65
2022/05/28 02:59:14;;;;;;;11.30;2.28;;;10.30;99.90;;;;;;5107547;28;20047;-65
2022/05/28 03:01:39;;;;;;;10.68;2.17;;;10.30;99.90;;;;;;5106921;28;20530;-65
2022/05/28 03:04:06;;;;;;;11.15;2.08;;;10.30;99.90;;;;;;5110018;28;20611;-65
2022/05/28 03:06:32;;;;;;;7.75;2.00;;;10.30;99.90;;;;;;5104054;28;20398;-65
2022/05/28 03:08:58;;;;;;;14.25;2.08;;;10.30;99.90;;;;;;5097825;28;20037;-65
2022/05/28 03:11:24;;;;;;;8.95;1.88;;;10.30;99.90;;;;;;5110070;28;20048;-65
2022/05/28 03:13:50;;;;;;;11.80;2.30;;;10.30;99.90;;;;;;5110027;28;20039;-65
2022/05/28 03:16:16;;;;;;;11.65;2.00;;;10.30;99.90;;;;;;5101641;28;20135;-65
2022/05/28 03:18:42;;;;;;;9.77;1.88;;;10.30;99.90;;;;;;5107241;28;20472;-65
2022/05/28 03:21:08;;;;;;;14.45;2.65;;;10.30;99.90;;;;;;5106953;28;20094;-65
2022/05/28 03:23:34;;;;;;;10.27;2.20;;;10.30;99.90;;;;;;5088474;28;20513;-65
2022/05/28 03:26:13;;;;;;;14.40;2.40;;;10.20;99.90;;;;;;5084335;28;20044;-66
2022/05/28 03:28:39;;;;;;;12.25;2.40;;;10.20;99.90;;;;;;5087869;28;20040;-66
2022/05/28 03:31:04;;;;;;;12.23;2.20;;;10.20;99.90;;;;;;5087540;28;20036;-66
2022/05/28 03:33:30;;;;;;;16.30;2.55;;;10.20;99.90;;;;;;5087909;28;20119;-66
2022/05/28 03:35:56;;;;;;;12.57;2.33;;;10.20;99.90;;;;;;5082390;28;20103;-66
2022/05/28 03:38:21;;;;;;;11.32;2.35;;;10.20;99.90;;;;;;5087362;28;20399;-66
2022/05/28 03:40:47;;;;;;;11.65;2.20;;;10.20;99.90;;;;;;5103535;28;20043;-65
2022/05/28 03:43:12;;;;;;;10.75;2.92;;;10.20;99.90;;;;;;5088449;28;20044;-66
2022/05/28 03:45:38;;;;;;;11.88;2.67;;;10.30;99.90;;;;;;5086762;28;20040;-66
2022/05/28 03:48:06;;;;;;;10.30;2.10;;;10.30;99.90;;;;;;5093730;28;20039;-66
2022/05/28 03:50:31;;;;;;;9.63;2.22;;;10.30;99.90;;;;;;5085780;28;20036;-66
2022/05/28 03:52:57;;;;;;;10.00;2.40;;;10.30;99.90;;;;;;5088308;28;20060;-66
2022/05/28 03:55:22;;;;;;;11.93;2.22;;;10.30;99.90;;;;;;5087514;28;20131;-66
2022/05/28 03:57:48;;;;;;;11.27;2.60;;;10.30;99.90;;;;;;5084545;28;20108;-66
2022/05/28 04:00:15;;;;;;;10.63;2.35;;;10.30;99.90;;;;;;5087819;28;20574;-66
2022/05/28 04:02:40;;;;;;;11.65;2.20;;;10.30;99.90;;;;;;5087477;28;20040;-66
2022/05/28 04:05:07;;;;;;;12.88;2.10;;;10.30;99.90;;;;;;5084892;28;20044;-66
2022/05/28 04:07:32;;;;;;;11.85;2.50;;;10.30;99.90;;;;;;5085863;28;20046;-66
2022/05/28 04:09:58;;;;;;;12.18;2.38;;;10.30;99.90;;;;;;5091867;28;20032;-66
2022/05/28 04:12:24;;;;;;;13.20;3.08;;;10.30;99.90;;;;;;5104463;28;20047;-66
2022/05/28 04:14:49;;;;;;;11.90;2.38;;;10.30;99.90;;;;;;5087526;28;20498;-66
2022/05/28 04:17:15;;;;;;;12.38;2.13;;;10.30;99.90;;;;;;5085551;28;20040;-66
2022/05/28 04:19:41;;;;;;;14.70;2.80;;;10.30;99.90;;;;;;5086412;28;20072;-66
2022/05/28 04:22:07;;;;;;;10.13;2.58;;;10.40;99.90;;;;;;5085715;28;20044;-66
2022/05/28 04:24:33;;;;;;;11.45;2.38;;;10.40;99.90;;;;;;5097203;28;20035;-66
2022/05/28 04:27:01;;;;;;;9.02;2.13;;;10.40;99.90;;;;;;5108307;28;20040;-66
2022/05/28 04:29:27;;;;;;;12.45;2.05;;;10.40;99.90;;;;;;5109061;28;20055;-66
2022/05/28 04:31:52;;;;;;;12.25;2.67;;;10.40;99.90;;;;;;5110360;28;20043;-66
2022/05/28 04:34:18;;;;;;;14.90;2.80;;;10.40;99.90;;;;;;5105789;28;20046;-66
2022/05/28 04:36:46;;;;;;;13.90;2.78;;;10.40;99.90;;;;;;5113019;28;20039;-66
2022/05/28 04:39:12;;;;;;;14.85;2.50;;;10.40;99.90;;;;;;5096096;28;20044;-66
2022/05/28 04:41:37;;;;;;;9.82;2.80;;;10.40;99.90;;;;;;5090521;28;20044;-66
2022/05/28 04:44:03;;;;;;;11.20;2.65;;;10.40;99.90;;;;;;5092590;28;20479;-66
2022/05/28 04:46:29;;;;;;;10.50;2.30;;;10.40;99.90;;;;;;5099965;28;20383;-66
2022/05/28 04:48:57;;;;;;;16.75;2.90;;;10.50;99.90;;;;;;5090016;28;20040;-66
2022/05/28 04:51:23;;;;;;;11.70;2.20;;;10.50;99.90;;;;;;5091365;28;20406;-66
2022/05/28 04:53:49;;;;;;;14.00;2.85;;;10.50;99.90;;;;;;5088882;28;20112;-66
2022/05/28 04:56:15;;;;;;;14.18;2.65;;;10.60;99.90;;;;;;5088007;28;20590;-66
2022/05/28 04:58:44;;;;;;;10.40;2.15;;;10.70;99.90;;;;;;5092436;28;20048;-66
2022/05/28 05:01:14;;;;;;;16.77;3.53;;;10.70;99.90;;;;;;5090298;28;20132;-66
2022/05/28 05:03:41;;;;;;;12.43;2.55;;;10.70;99.90;;;;;;5087325;28;20036;-66
2022/05/28 05:06:06;;;;;;;14.33;2.70;;;10.80;99.90;;;;;;5089053;28;20120;-66
2022/05/28 05:08:32;;;;;;;12.77;3.08;;;10.80;99.90;;;;;;5107622;28;20375;-66
2022/05/28 05:10:58;;;;;;;17.92;3.05;;;10.80;99.90;;;;;;5103165;28;20043;-66
2022/05/28 05:13:23;;;;;;;13.50;2.80;;;10.70;99.90;;;;;;5091672;28;20047;-66
2022/05/28 05:15:49;;;;;;;12.88;2.90;;;10.70;99.90;;;;;;5091023;28;20043;-66
2022/05/28 05:18:15;;;;;;;16.00;3.10;;;10.70;99.90;;;;;;5096223;28;20044;-66
2022/05/28 05:20:41;;;;;;;13.35;2.45;;;10.70;99.90;;;;;;5090178;28;20085;-66
2022/05/28 05:23:07;;;;;;;14.57;2.42;;;10.70;99.90;;;;;;5097612;28;20111;-66
2022/05/28 05:25:32;;;;;;;11.82;2.58;;;10.80;99.90;;;;;;5095768;28;20841;-66
2022/05/28 05:27:59;;;;;;;12.02;2.78;;;10.80;99.90;;;;;;5094464;28;20396;-66
2022/05/28 05:30:25;;;;;;;13.55;2.63;;;10.90;99.90;;;;;;5092629;28;20177;-66
2022/05/28 05:32:51;;;;;;;16.35;2.75;;;11.00;99.90;;;;;;5091725;28;20110;-66
2022/05/28 05:35:16;;;;;;;18.92;2.78;;;11.10;99.90;;;;;;5090362;28;20150;-66
2022/05/28 05:37:42;;;;;;;13.20;2.85;;;11.20;99.90;;;;;;5086207;28;20032;-66
2022/05/28 05:40:09;;;;;;;16.77;3.80;;;11.30;99.90;;;;;;5090937;28;20177;-66
2022/05/28 05:42:34;;;;;;;11.13;2.88;;;11.40;99.90;;;;;;5103103;28;20051;-66
2022/05/28 05:45:00;;;;;;;15.30;3.08;;;11.40;99.90;;;;;;5087568;28;20040;-66
2022/05/28 05:47:26;;;;;;;13.50;2.65;;;11.40;99.90;;;;;;5089515;28;20505;-66
2022/05/28 05:49:51;;;;;;;13.43;2.88;;;11.40;99.90;;;;;;5087979;28;20036;-66
2022/05/28 05:52:17;;;;;;;11.90;3.00;;;11.40;99.90;;;;;;5098345;28;20060;-66
2022/05/28 05:54:43;;;;;;;15.82;3.00;;;11.40;99.90;;;;;;5095333;28;20047;-66
2022/05/28 05:57:08;;;;;;;20.33;2.83;;;11.40;99.90;;;;;;5089455;28;20048;-67
2022/05/28 05:59:34;;;;;;;13.50;2.60;;;11.40;99.90;;;;;;5102288;28;20039;-67
2022/05/28 06:02:00;;;;;;;14.55;3.20;;;11.50;99.90;;;;;;5086930;28;20036;-66
2022/05/28 06:04:26;;;;;;;16.20;2.55;;;11.50;99.90;;;;;;5083063;28;20051;-66
2022/05/28 06:06:51;;;;;;;16.25;3.20;;;11.50;99.90;;;;;;5099811;28;20044;-66
2022/05/28 06:09:17;;;;;;;12.23;2.63;;;11.70;99.90;;;;;;5087389;28;20173;-66
2022/05/28 06:11:43;;;;;;;13.52;3.00;;;11.70;99.90;;;;;;5086919;28;20093;-66
2022/05/28 06:14:09;;;;;;;10.40;2.67;;;11.80;99.90;;;;;;5088801;28;20081;-66
2022/05/28 06:16:35;;;;;;;15.50;3.92;;;11.90;99.90;;;;;;5096879;28;20048;-66
2022/05/28 06:19:01;;;;;;;13.45;3.00;;;12.00;99.90;;;;;;5078241;28;20550;-66
2022/05/28 06:21:27;;;;;;;15.55;3.53;;;12.10;99.90;;;;;;5089807;28;21049;-66
2022/05/28 06:23:53;;;;;;;12.38;2.60;;;12.20;99.90;;;;;;5080899;28;20039;-66
2022/05/28 06:26:19;;;;;;;16.23;3.08;;;12.30;99.90;;;;;;5080048;28;20048;-66
2022/05/28 06:28:45;;;;;;;18.25;3.38;;;12.30;99.90;;;;;;5092434;28;20036;-66
2022/05/28 06:31:14;;;;;;;14.63;2.72;;;12.40;99.90;;;;;;5096842;28;20043;-66
2022/05/28 06:33:41;;;;;;;15.27;3.45;;;12.50;99.90;;;;;;5086858;28;20040;-66
2022/05/28 06:36:08;;;;;;;18.27;3.13;;;12.60;99.90;;;;;;5088612;28;20094;-66
2022/05/28 06:38:35;;;;;;;11.43;3.03;;;12.50;99.90;;;;;;5094849;28;20054;-66
2022/05/28 06:41:01;;;;;;;13.60;2.67;;;12.50;99.90;;;;;;5073335;28;20115;-66
2022/05/28 06:43:27;;;;;;;13.27;2.60;;;12.40;99.90;;;;;;5088369;28;20143;-66
2022/05/28 06:45:53;;;;;;;13.02;2.88;;;12.40;99.90;;;;;;5089969;28;20044;-66
2022/05/28 06:48:19;;;;;;;13.77;2.65;;;12.40;99.90;;;;;;5084640;28;20436;-66
2022/05/28 06:51:02;;;;;;;10.52;2.65;;;12.50;99.90;;;;;;5086570;28;20036;-66
2022/05/28 06:53:37;;;;;;;11.93;2.78;;;12.50;99.90;;;;;;5084268;28;20063;-66
2022/05/28 06:56:04;;;;;;;12.77;2.60;;;12.60;99.90;;;;;;5096748;28;20051;-66
2022/05/28 06:58:30;;;;;;;18.15;3.28;;;12.60;99.90;;;;;;5083434;28;20083;-67
2022/05/28 07:00:55;;;;;;;9.90;2.75;;;12.70;99.90;;;;;;5083167;28;20049;-67
2022/05/28 07:03:24;;;;;;;12.30;2.95;;;12.70;99.90;;;;;;5092513;28;20039;-66
2022/05/28 07:05:50;;;;;;;12.07;2.17;;;12.90;99.90;;;;;;5092094;27;20071;-69
2022/05/28 07:08:16;;;;;;;13.02;2.60;;;13.00;99.90;;;;;;5087172;28;20141;-70
2022/05/28 07:10:47;;;;;;;9.38;2.28;;;12.90;99.90;;;;;;5093213;28;20409;-71
2022/05/28 07:13:14;;;;;;;13.20;2.70;;;12.90;99.90;;;;;;5094198;28;20079;-70
2022/05/28 07:15:40;;;;;;;9.73;2.60;;;13.00;99.90;;;;;;5089849;28;20031;-69
2022/05/28 07:18:06;;;;;;;12.90;2.90;;;13.00;99.90;;;;;;5090331;28;20044;-68
2022/05/28 07:20:32;;;;;;;17.02;3.08;;;13.00;99.90;;;;;;5093888;28;20039;-68
2022/05/28 07:22:58;;;;;;;15.98;3.13;;;13.00;99.90;;;;;;5097172;28;20126;-69
2022/05/28 07:25:24;;;;;;;12.13;2.75;;;13.00;99.90;;;;;;5099829;28;20099;-69
2022/05/28 07:27:49;;;;;;;13.02;2.75;;;12.90;99.90;;;;;;5109752;28;20043;-68
2022/05/28 07:30:15;;;;;;;11.48;2.85;;;12.70;99.90;;;;;;5104045;28;20039;-68
2022/05/28 07:32:41;;;;;;;12.80;2.80;;;12.60;99.90;;;;;;5089345;28;20048;-68
2022/05/28 07:35:07;;;;;;;14.65;3.10;;;12.50;99.90;;;;;;5080429;28;20095;-68
2022/05/28 07:37:32;;;;;;;10.13;2.92;;;12.50;99.90;;;;;;5097000;28;20046;-68
2022/05/28 07:39:59;;;;;;;11.68;2.60;;;12.50;99.90;;;;;;5099929;28;20036;-69
2022/05/28 07:42:26;;;;;;;9.40;1.95;;;12.50;99.90;;;;;;5093239;28;20085;-69
2022/05/28 07:44:52;;;;;;;10.65;2.13;;;12.40;99.90;;;;;;5106832;28;20661;-69
2022/05/28 07:47:18;;;;;;;9.15;1.95;;;12.50;99.90;;;;;;5109154;28;20035;-68
2022/05/28 07:49:44;;;;;;;6.97;2.38;;;12.60;99.90;;;;;;5098834;28;20079;-67
2022/05/28 07:52:10;;;;;;;13.75;2.53;;;12.70;99.90;;;;;;5086263;28;20046;-67
2022/05/28 07:54:36;;;;;;;14.15;2.33;;;12.90;99.90;;;;;;5098412;28;20131;-68
2022/05/28 07:57:03;;;;;;;12.60;2.80;;;12.90;99.90;;;;;;5085879;28;20047;-68
2022/05/28 07:59:29;;;;;;;8.82;2.38;;;12.90;99.90;;;;;;5091197;28;20113;-69
2022/05/28 08:01:56;;;;;;;12.27;2.50;;;13.00;99.90;;;;;;5084685;28;20485;-69
2022/05/28 08:04:22;;;;;;;9.68;1.90;;;13.00;99.90;;;;;;5088548;28;20132;-69
2022/05/28 08:06:48;;;;;;;8.48;1.88;;;13.00;99.90;;;;;;5095734;28;20115;-70
2022/05/28 08:09:13;;;;;;;7.68;1.85;;;13.00;99.90;;;;;;5088950;28;20040;-69
2022/05/28 08:11:39;;;;;;;5.93;1.95;;;13.10;99.90;;;;;;5098690;28;20040;-69
2022/05/28 08:14:06;;;;;;;7.28;1.80;;;13.10;99.90;;;;;;5090487;28;20097;-68
2022/05/28 08:16:31;;;;;;;8.93;2.00;;;13.20;99.90;;;;;;5108306;28;20096;-69
2022/05/28 08:18:57;;;;;;;6.28;1.67;;;13.20;99.90;;;;;;5112053;28;20138;-68
2022/05/28 08:24:07;;;;;;;9.15;2.33;;;13.20;99.90;;;;;;5088560;28;20065;-70
2022/05/28 08:26:35;;;;;;;9.65;2.22;;;13.20;99.90;;;;;;5098714;28;20395;-69
2022/05/28 08:29:01;;;;;;;;;;;13.30;99.90;;;;;;5101971;28;20376;-68
2022/05/28 08:31:26;;;;;;;12.27;2.78;;;13.20;99.90;;;;;;5098451;28;19968;-68
2022/05/28 08:33:53;;;;;;;10.13;2.20;;;13.30;99.90;;;;;;5107853;28;20367;-68
2022/05/28 08:36:19;;;;;;;12.25;2.92;;;13.50;99.90;;;;;;5106026;28;20051;-68
2022/05/28 08:38:46;;;;;;;12.95;2.80;;;13.60;99.90;;;;;;5089440;28;20036;-68
2022/05/28 08:41:21;;;;;;;14.05;2.70;;;13.60;99.90;;;;;;5093286;28;20486;-67
2022/05/28 08:43:54;;;;;;;12.23;2.80;;;13.90;99.90;;;;;;5109842;28;20043;-68
2022/05/28 08:46:23;;;;;;;16.17;3.10;;;14.00;99.90;;;;;;5099605;28;20055;-68
2022/05/28 08:48:50;;;;;;;19.58;3.85;;;14.10;99.90;;;;;;5092577;28;20040;-69
2022/05/28 08:51:37;;;;;;;13.52;3.00;;;14.20;99.90;;;;;;5102386;28;20568;-69
2022/05/28 08:54:42;;;;;;;13.60;3.30;;;14.30;99.90;;;;;;5105534;28;20051;-69
2022/05/28 08:57:13;;;;;;;17.02;3.40;;;14.40;99.90;;;;;;5079511;28;20405;-69
2022/05/28 08:59:54;;;;;;;14.25;3.25;;;14.50;99.90;;;;;;5088846;28;20051;-68
2022/05/28 09:02:46;;;;;;;15.98;3.42;;;14.50;99.90;;;;;;5086908;28;20067;-69
2022/05/28 09:05:28;;;;;;;14.75;3.38;;;14.50;99.90;;;;;;5109765;28;20056;-68
2022/05/28 09:08:01;;;;;;;16.52;3.42;;;14.60;99.90;;;;;;5089634;28;20052;-68
2022/05/28 09:10:32;;;;;;;13.45;2.65;;;14.70;99.90;;;;;;5091091;28;20044;-68
2022/05/28 09:13:26;;;;;;;12.25;2.92;;;14.80;99.90;;;;;;5105838;28;20059;-68
2022/05/28 09:15:53;;;;;;;13.77;2.60;;;14.90;99.90;;;;;;5100498;28;20047;-68
2022/05/28 09:18:20;;;;;;;11.00;2.75;;;14.90;99.90;;;;;;5107274;28;20050;-68
2022/05/28 09:20:48;;;;;;;;;;;15.00;99.90;;;;;;5111366;28;20032;-68
2022/05/28 09:23:14;;;;;;;14.70;3.25;;;15.00;99.90;;;;;;5110631;28;20015;-68
2022/05/28 09:25:43;;;;;;;13.65;2.92;;;14.90;99.90;;;;;;5103028;28;20379;-68
2022/05/28 09:28:54;;;;;;;14.45;2.92;;;14.80;99.90;;;;;;5110177;28;20036;-68
2022/05/28 09:31:40;;;;;;;12.82;2.80;;;14.70;99.90;;;;;;5060566;28;20108;-68
2022/05/28 09:34:31;;;;;;;11.23;2.28;;;14.50;99.90;;;;;;5088522;28;20056;-69
2022/05/28 09:37:34;;;;;;;9.50;2.50;;;14.20;99.90;;;;;;5095934;28;20036;-69
2022/05/28 09:40:10;;;;;;;10.07;2.58;;;13.90;99.90;;;;;;5076769;28;20142;-70
2022/05/28 09:42:47;;;;;;;13.30;3.30;;;13.80;99.90;;;;;;5084365;28;20048;-70
2022/05/28 09:45:46;;;;;;;13.45;3.10;;;13.80;99.90;;;;;;5082987;28;20298;-69
2022/05/28 09:48:27;;;;;;;10.98;2.60;;;13.90;99.90;;;;;;5095053;28;20038;-68
2022/05/28 09:50:53;;;;;;;14.85;2.83;;;14.00;99.90;;;;;;5086237;28;20055;-69
2022/05/28 09:56:25;;;;;;;18.73;6.00;;;14.20;99.90;;;;;;5095589;28;20363;-70
2022/05/28 09:58:52;;;;;;;11.98;2.80;;;14.40;99.90;;;;;;5102512;28;20139;-68
2022/05/28 10:01:26;;;;;;;14.93;2.90;;;14.60;99.90;;;;;;5089422;28;20099;-68
2022/05/28 10:06:47;;;;;;;12.35;2.95;;;15.00;99.90;;;;;;5102492;28;20040;-68
2022/05/28 10:09:21;;;;;;;17.60;3.10;;;15.00;99.90;;;;;;5108465;28;20036;-68
2022/05/28 10:11:56;;;;;;;14.40;2.90;;;15.00;99.90;;;;;;5089190;28;20063;-68
2022/05/28 10:14:24;;;;;;;13.23;3.05;;;15.00;99.90;;;;;;5087987;28;20040;-68
2022/05/28 10:16:55;;;;;;;13.10;3.00;;;14.80;99.90;;;;;;5100677;28;20043;-69
2022/05/28 10:19:43;;;;;;;13.68;2.92;;;14.70;99.90;;;;;;5089664;28;20040;-69
2022/05/28 10:22:21;;;;;;;15.30;3.53;;;14.70;99.90;;;;;;5089571;28;20086;-69
2022/05/28 10:24:59;;;;;;;14.35;3.10;;;14.70;99.90;;;;;;5093603;28;20039;-70
2022/05/28 10:27:30;;;;;;;14.10;3.10;;;14.60;99.90;;;;;;5083478;28;20040;-67
2022/05/28 10:29:58;;;;;;;13.20;2.72;;;14.70;99.90;;;;;;5085838;28;20042;-67
2022/05/28 10:32:35;;;;;;;13.23;3.45;;;14.70;99.90;;;;;;5102301;28;20039;-68
2022/05/28 10:35:28;;;;;;;13.57;3.20;;;14.60;99.90;;;;;;5095752;28;20043;-67
2022/05/28 10:38:24;;;;;;;17.75;3.17;;;14.50;99.90;;;;;;5087581;28;20075;-68
2022/05/28 10:41:01;;;;;;;11.63;3.00;;;14.40;99.90;;;;;;5102898;28;20088;-69
2022/05/28 10:43:34;;;;;;;10.85;2.60;;;14.40;99.90;;;;;;5090924;28;20123;-68
2022/05/28 10:46:15;;;;;;;13.27;3.05;;;14.40;99.90;;;;;;5099710;28;20044;-68
2022/05/28 10:48:59;;;;;;;8.43;2.25;;;14.60;99.90;;;;;;5108992;28;20048;-71
2022/05/28 10:51:46;;;;;;;12.23;2.50;;;14.70;99.90;;;;;;5097527;28;20126;-70
2022/05/28 10:54:44;;;;;;;13.10;2.78;;;14.70;99.90;;;;;;5109858;28;20051;-71
2022/05/28 10:57:43;;;;;;;12.68;2.88;;;14.80;99.90;;;;;;5083659;28;20055;-71
2022/05/28 11:00:19;;;;;;;12.18;2.38;;;15.00;99.90;;;;;;5095599;28;20063;-69
2022/05/28 11:02:51;;;;;;;13.65;3.45;;;15.10;99.90;;;;;;5104487;28;20127;-69
2022/05/28 11:05:39;;;;;;;13.93;2.67;;;15.30;99.90;;;;;;5109372;28;20055;-70
2022/05/28 11:08:13;;;;;;;10.18;2.28;;;15.30;99.90;;;;;;5067985;28;20052;-69
2022/05/28 11:11:02;;;;;;;14.32;3.40;;;15.30;99.90;;;;;;5100199;28;20135;-70
2022/05/28 11:13:56;;;;;;;15.57;3.25;;;15.20;99.90;;;;;;5088766;28;20119;-70
2022/05/28 11:16:38;;;;;;;12.40;2.85;;;14.90;99.90;;;;;;5069292;28;20052;-69
2022/05/28 11:19:11;;;;;;;16.52;3.20;;;14.60;99.90;;;;;;5069381;28;20048;-69
2022/05/28 11:22:02;;;;;;;15.63;3.15;;;14.30;99.90;;;;;;5083838;28;20181;-69
2022/05/28 11:24:51;;;;;;;18.73;3.15;;;14.10;99.90;;;;;;5088011;28;20048;-69
2022/05/28 11:27:29;;;;;;;13.25;2.85;;;14.10;99.90;;;;;;5088649;28;20048;-70
2022/05/28 11:30:02;;;;;;;11.77;3.05;;;14.20;99.90;;;;;;5088369;28;20479;-69
2022/05/28 11:32:39;;;;;;;12.55;2.97;;;14.30;99.90;;;;;;5108622;28;20050;-69
2022/05/28 11:35:20;;;;;;;12.13;2.50;;;14.60;99.90;;;;;;5087052;28;20044;-70
2022/05/28 11:38:11;;;;;;;11.30;2.25;;;14.80;99.90;;;;;;5081472;28;20328;-69
2022/05/28 11:41:01;;;;;;;9.88;2.55;;;15.00;99.90;;;;;;5090857;28;20086;-70
2022/05/28 11:43:30;;;;;;;9.35;2.80;;;15.30;99.90;;;;;;5108589;28;20123;-69
2022/05/28 11:46:09;;;;;;;13.23;2.40;;;15.40;99.90;;;;;;5109409;28;20051;-69
2022/05/28 11:51:33;;;;;;;11.55;2.47;;;15.40;99.90;;;;;;5097252;28;20127;-70
2022/05/28 11:54:11;;;;;;;9.50;2.08;;;15.50;99.90;;;;;;5087732;28;20044;-69
2022/05/28 11:56:37;;;;;;;8.35;2.13;;;15.50;99.90;;;;;;5086740;28;20068;-70
2022/05/28 11:59:15;;;;;;;11.90;2.63;;;15.40;99.90;;;;;;5087955;28;20032;-69
2022/05/28 12:01:52;;;;;;;10.75;2.92;;;15.20;99.90;;;;;;5088100;28;20088;-69
2022/05/28 12:04:19;;;;;;;13.60;2.85;;;14.90;99.90;;;;;;5088163;28;20059;-70
2022/05/28 12:07:09;;;;;;;13.57;2.55;;;14.70;99.90;;;;;;5089187;28;20044;-70
2022/05/28 12:09:42;;;;;;;15.73;3.13;;;14.60;99.90;;;;;;5088570;28;20475;-70
2022/05/28 12:12:38;;;;;;;13.93;3.20;;;14.50;99.90;;;;;;5107680;28;20052;-70
2022/05/28 12:15:16;;;;;;;12.55;2.97;;;14.50;99.90;;;;;;5109000;28;20097;-69
2022/05/28 12:17:55;;;;;;;16.38;3.00;;;14.70;99.90;;;;;;5106685;28;20043;-71
2022/05/28 12:20:30;;;;;;;12.80;3.00;;;14.80;99.90;;;;;;5103780;28;20051;-70
2022/05/28 12:23:00;;;;;;;14.95;3.08;;;15.30;99.90;;;;;;5104092;28;20127;-70
2022/05/28 12:25:28;;;;;;;9.45;1.95;;;15.60;99.90;;;;;;5108396;28;20544;-70
2022/05/28 12:27:54;;;;;;;12.00;2.25;;;15.70;99.90;;;;;;5103028;28;20048;-70
2022/05/28 12:30:26;;;;;;;12.23;2.65;;;15.90;99.90;;;;;;5108338;28;20292;-70
2022/05/28 12:32:52;;;;;;;12.00;2.38;;;16.00;99.10;;;;;;5088466;28;20072;-70
2022/05/28 12:35:17;;;;;;;8.25;2.03;;;16.00;99.90;;;;;;5088242;28;20127;-72
2022/05/28 12:37:55;;;;;;;7.82;1.95;;;16.10;98.30;;;;;;5087772;28;20123;-70
2022/05/28 12:40:46;;;;;;;13.23;2.58;;;16.10;96.30;;;;;;5085340;28;20509;-70
2022/05/28 12:43:19;;;;;;;11.20;2.05;;;16.20;95.40;;;;;;5102260;28;20047;-70
2022/05/28 12:45:47;;;;;;;13.38;2.45;;;16.20;95.60;;;;;;5101555;28;20048;-73
2022/05/28 12:48:27;;;;;;;14.43;2.70;;;16.00;97.00;;;;;;5086339;28;20047;-71
2022/05/28 12:51:18;;;;;;;10.30;2.38;;;15.90;98.30;;;;;;5093376;28;20043;-69
2022/05/28 12:53:54;;;;;;;10.07;2.38;;;15.80;98.20;;;;;;5089143;28;20064;-69
2022/05/28 12:56:35;;;;;;;15.30;2.47;;;15.50;99.30;;;;;;5106593;28;20052;-68
2022/05/28 12:59:29;;;;;;;13.77;2.60;;;15.40;99.90;;;;;;5077333;28;20299;-67
2022/05/28 13:02:16;;;;;;;12.15;2.75;;;15.40;99.90;;;;;;5083996;28;20052;-68
2022/05/28 13:04:48;;;;;;;14.10;2.85;;;15.40;99.90;;;;;;5092780;28;20051;-67
2022/05/28 13:07:22;;;;;;;13.77;2.80;;;15.40;99.90;;;;;;5094865;28;20039;-68
2022/05/28 13:09:53;;;;;;;13.40;3.08;;;15.20;99.90;;;;;;5096472;28;20062;-68
2022/05/28 13:12:26;;;;;;;10.75;2.97;;;15.00;99.90;;;;;;5087190;28;20517;-66